createdAt,value
2023-05-14T00:09:26.901Z,13.27
2023-05-14T00:19:31.184Z,17.83
2023-05-14T00:29:34.151Z,21.25
2023-05-14T00:39:38.473Z,20.92
2023-05-14T00:49:41.577Z,19.80
2023-05-14T00:59:46.051Z,23.55
2023-05-14T01:09:59.735Z,20.77
2023-05-14T01:20:04.725Z,25.95
2023-05-14T01:30:18.103Z,25.20
2023-05-14T01:40:22.032Z,27.67
2023-05-14T01:50:27.290Z,30.83
2023-05-14T02:00:30.557Z,34.97
2023-05-14T02:10:36.171Z,33.80
2023-05-14T02:20:39.274Z,30.97
2023-05-14T02:30:43.498Z,33.53
2023-05-14T02:40:46.481Z,25.10
2023-05-14T02:50:51.500Z,35.60
2023-05-14T03:00:54.512Z,36.28
2023-05-14T03:10:59.032Z,31.92
2023-05-14T03:21:02.243Z,36.00
2023-05-14T03:31:06.664Z,39.83
2023-05-14T03:41:09.809Z,44.70
2023-05-14T03:51:14.781Z,40.40
2023-05-14T04:01:17.876Z,44.50
2023-05-14T04:11:22.509Z,39.15
2023-05-14T04:21:25.593Z,46.08
2023-05-14T04:31:29.988Z,48.42
2023-05-14T04:41:32.980Z,48.90
2023-05-14T04:51:37.656Z,48.92
2023-05-14T05:01:40.870Z,44.27
2023-05-14T05:11:45.267Z,47.65
2023-05-14T05:21:48.340Z,45.90
2023-05-14T05:31:52.871Z,45.05
2023-05-14T05:41:56.052Z,48.47
2023-05-14T05:52:00.498Z,39.63
2023-05-14T06:02:03.462Z,44.83
2023-05-14T06:12:08.911Z,42.75
2023-05-14T06:22:11.862Z,37.47
2023-05-14T06:32:16.513Z,36.15
2023-05-14T06:42:19.689Z,36.35
2023-05-14T06:52:25.051Z,34.00
2023-05-14T07:02:28.061Z,33.77
2023-05-14T07:12:32.412Z,31.17
2023-05-14T07:22:35.430Z,31.38
2023-05-14T07:32:39.834Z,28.50
2023-05-14T07:52:47.057Z,25.08
2023-05-14T08:02:50.484Z,26.92
2023-05-14T08:12:54.891Z,22.70
2023-05-14T08:22:58.087Z,22.65
2023-05-14T08:33:02.437Z,24.52
2023-05-14T08:53:09.638Z,22.00
2023-05-14T09:03:13.582Z,18.33
2023-05-14T09:13:17.971Z,24.05
2023-05-14T09:23:20.905Z,20.05
2023-05-14T09:33:29.257Z,19.30
2023-05-14T09:43:32.531Z,19.95
2023-05-14T09:53:37.168Z,14.43
2023-05-14T10:03:40.541Z,13.77
2023-05-14T10:13:51.521Z,19.77
2023-05-14T10:23:55.128Z,14.52
2023-05-14T10:33:59.958Z,11.77
2023-05-14T10:44:10.173Z,9.57
2023-05-14T10:54:14.896Z,18.52
2023-05-14T11:04:20.101Z,13.80
2023-05-14T11:14:24.527Z,13.25
2023-05-14T11:24:27.507Z,11.45
2023-05-14T11:34:31.810Z,16.07
2023-05-14T11:44:35.006Z,11.60
2023-05-14T11:54:39.347Z,12.43
2023-05-14T12:04:43.557Z,11.80
2023-05-14T12:14:48.745Z,11.05
2023-05-14T12:24:55.167Z,10.40
2023-05-14T12:35:01.197Z,12.10
2023-05-14T12:45:07.336Z,8.45
2023-05-14T12:55:12.008Z,5.45
2023-05-14T13:05:15.026Z,9.95
2023-05-14T13:15:19.617Z,16.23
2023-05-14T13:25:23.090Z,12.05
2023-05-14T13:35:27.748Z,9.35
2023-05-14T13:45:31.313Z,7.43
2023-05-14T13:55:36.054Z,7.88
2023-05-14T14:05:39.055Z,9.00
2023-05-14T14:25:46.779Z,7.65
2023-05-14T14:45:54.713Z,11.23
2023-05-14T15:06:02.069Z,13.20
2023-05-14T15:16:07.189Z,8.05
2023-05-14T15:26:10.415Z,10.50
2023-05-14T15:36:15.156Z,16.75
2023-05-14T15:46:18.230Z,74.53
2023-05-14T15:56:23.030Z,21.00
2023-05-14T16:06:26.922Z,18.10
2023-05-14T16:16:31.953Z,24.98
2023-05-14T16:26:35.280Z,32.00
2023-05-14T16:36:39.764Z,12.65
2023-05-14T16:46:43.067Z,14.10
2023-05-14T16:56:48.372Z,9.93
2023-05-14T17:06:51.508Z,15.88
2023-05-14T17:16:56.294Z,19.43
2023-05-14T17:26:59.261Z,25.35
2023-05-14T17:37:03.785Z,23.63
2023-05-14T17:47:08.494Z,23.95
2023-05-14T17:57:12.896Z,23.92
2023-05-14T18:07:16.370Z,22.15
2023-05-14T18:17:20.875Z,26.87
2023-05-14T18:27:23.836Z,29.35
2023-05-14T18:37:28.150Z,28.42
2023-05-14T18:57:35.669Z,26.35
2023-05-14T19:07:39.074Z,30.40
2023-05-14T19:17:43.452Z,31.73
2023-05-14T19:27:50.618Z,32.30
2023-05-14T19:37:54.955Z,27.70
2023-05-14T19:47:58.331Z,27.98
2023-05-14T19:58:02.672Z,37.97
2023-05-14T20:08:08.069Z,33.88
2023-05-14T20:18:12.385Z,40.08
2023-05-14T20:28:15.605Z,38.40
2023-05-14T20:38:19.988Z,36.00
2023-05-14T20:48:23.022Z,35.78
2023-05-14T20:58:28.038Z,32.42
2023-05-14T21:08:32.855Z,38.50
2023-05-14T21:18:37.288Z,46.70
2023-05-14T21:28:40.372Z,39.20
2023-05-14T21:38:44.859Z,42.00
2023-05-14T21:48:47.858Z,40.55
2023-05-14T21:58:52.237Z,40.78
2023-05-14T22:08:55.211Z,45.20
2023-05-14T22:18:59.583Z,37.13
2023-05-14T22:29:02.620Z,40.40
2023-05-14T22:39:07.036Z,45.22
2023-05-14T22:49:09.976Z,46.20
2023-05-14T22:59:14.444Z,43.45
2023-05-14T23:09:17.394Z,45.08
2023-05-14T23:19:22.721Z,48.88
2023-05-14T23:29:25.857Z,43.35
2023-05-14T23:39:30.308Z,55.80
2023-05-14T23:49:33.290Z,50.77
2023-05-14T23:59:40.142Z,52.40
